sensor_id;sensor_type;location;lat;lon;timestamp;P1;durP1;ratioP1;P2;durP2;ratioP2
31660;SDS011;18267;52.234;7.444;2024-03-07T00:02:04;45.15;;;19.35;;
31660;SDS011;18267;52.234;7.444;2024-03-07T00:04:31;50.33;;;20.67;;
31660;SDS011;18267;52.234;7.444;2024-03-07T00:06:57;44.55;;;19.65;;
31660;SDS011;18267;52.234;7.444;2024-03-07T00:09:22;53.63;;;19.77;;
31660;SDS011;18267;52.234;7.444;2024-03-07T00:11:49;48.25;;;19.75;;
31660;SDS011;18267;52.234;7.444;2024-03-07T00:14:15;51.00;;;20.70;;
31660;SDS011;18267;52.234;7.444;2024-03-07T00:16:40;51.50;;;21.90;;
31660;SDS011;18267;52.234;7.444;2024-03-07T00:19:06;48.05;;;20.67;;
31660;SDS011;18267;52.234;7.444;2024-03-07T00:21:32;53.13;;;19.67;;
31660;SDS011;18267;52.234;7.444;2024-03-07T00:23:57;45.00;;;19.10;;
31660;SDS011;18267;52.234;7.444;2024-03-07T00:26:24;46.03;;;19.15;;
31660;SDS011;18267;52.234;7.444;2024-03-07T00:28:50;44.28;;;18.98;;
31660;SDS011;18267;52.234;7.444;2024-03-07T00:31:16;47.63;;;18.55;;
31660;SDS011;18267;52.234;7.444;2024-03-07T00:33:42;54.85;;;20.67;;
31660;SDS011;18267;52.234;7.444;2024-03-07T00:36:07;52.42;;;20.23;;
31660;SDS011;18267;52.234;7.444;2024-03-07T00:38:33;41.80;;;18.90;;
31660;SDS011;18267;52.234;7.444;2024-03-07T00:40:59;54.88;;;21.02;;
31660;SDS011;18267;52.234;7.444;2024-03-07T00:43:25;44.63;;;20.20;;
31660;SDS011;18267;52.234;7.444;2024-03-07T00:45:50;49.10;;;20.23;;
31660;SDS011;18267;52.234;7.444;2024-03-07T00:48:16;42.08;;;18.95;;
31660;SDS011;18267;52.234;7.444;2024-03-07T00:50:42;62.13;;;19.98;;
31660;SDS011;18267;52.234;7.444;2024-03-07T00:53:08;47.97;;;18.73;;
31660;SDS011;18267;52.234;7.444;2024-03-07T00:55:34;44.83;;;18.20;;
31660;SDS011;18267;52.234;7.444;2024-03-07T00:57:59;45.20;;;19.38;;
31660;SDS011;18267;52.234;7.444;2024-03-07T01:00:25;45.40;;;18.35;;
31660;SDS011;18267;52.234;7.444;2024-03-07T01:02:50;38.97;;;18.15;;
31660;SDS011;18267;52.234;7.444;2024-03-07T01:05:18;41.58;;;17.92;;
31660;SDS011;18267;52.234;7.444;2024-03-07T01:07:44;40.35;;;18.17;;
31660;SDS011;18267;52.234;7.444;2024-03-07T01:10:11;38.30;;;18.77;;
31660;SDS011;18267;52.234;7.444;2024-03-07T01:12:37;48.30;;;19.10;;
31660;SDS011;18267;52.234;7.444;2024-03-07T01:15:03;46.25;;;18.02;;
31660;SDS011;18267;52.234;7.444;2024-03-07T01:17:32;49.05;;;19.50;;
31660;SDS011;18267;52.234;7.444;2024-03-07T01:19:58;46.05;;;18.52;;
31660;SDS011;18267;52.234;7.444;2024-03-07T01:22:24;40.58;;;16.77;;
31660;SDS011;18267;52.234;7.444;2024-03-07T01:24:49;50.28;;;18.40;;
31660;SDS011;18267;52.234;7.444;2024-03-07T01:27:16;40.92;;;17.80;;
31660;SDS011;18267;52.234;7.444;2024-03-07T01:29:41;36.67;;;16.40;;
31660;SDS011;18267;52.234;7.444;2024-03-07T01:32:09;45.45;;;17.42;;
31660;SDS011;18267;52.234;7.444;2024-03-07T01:34:35;35.65;;;16.42;;
31660;SDS011;18267;52.234;7.444;2024-03-07T01:37:01;41.30;;;16.55;;
31660;SDS011;18267;52.234;7.444;2024-03-07T01:39:26;50.75;;;18.80;;
31660;SDS011;18267;52.234;7.444;2024-03-07T01:41:52;41.80;;;18.13;;
31660;SDS011;18267;52.234;7.444;2024-03-07T01:44:18;50.15;;;18.38;;
31660;SDS011;18267;52.234;7.444;2024-03-07T01:46:43;37.78;;;16.73;;
31660;SDS011;18267;52.234;7.444;2024-03-07T01:49:09;47.42;;;17.70;;
31660;SDS011;18267;52.234;7.444;2024-03-07T01:51:36;39.58;;;16.70;;
31660;SDS011;18267;52.234;7.444;2024-03-07T01:54:02;39.30;;;17.48;;
31660;SDS011;18267;52.234;7.444;2024-03-07T01:56:28;44.70;;;17.15;;
31660;SDS011;18267;52.234;7.444;2024-03-07T01:58:54;38.83;;;17.05;;
31660;SDS011;18267;52.234;7.444;2024-03-07T02:01:21;33.78;;;16.58;;
31660;SDS011;18267;52.234;7.444;2024-03-07T02:03:47;38.35;;;16.42;;
31660;SDS011;18267;52.234;7.444;2024-03-07T02:06:13;37.78;;;15.40;;
31660;SDS011;18267;52.234;7.444;2024-03-07T02:08:39;36.15;;;15.57;;
31660;SDS011;18267;52.234;7.444;2024-03-07T02:11:05;39.78;;;16.75;;
31660;SDS011;18267;52.234;7.444;2024-03-07T02:13:31;39.20;;;17.17;;
31660;SDS011;18267;52.234;7.444;2024-03-07T02:15:56;32.13;;;16.20;;
31660;SDS011;18267;52.234;7.444;2024-03-07T02:18:22;31.65;;;15.90;;
31660;SDS011;18267;52.234;7.444;2024-03-07T02:20:48;33.85;;;16.10;;
31660;SDS011;18267;52.234;7.444;2024-03-07T02:23:14;37.50;;;15.60;;
31660;SDS011;18267;52.234;7.444;2024-03-07T02:25:40;36.08;;;15.80;;
31660;SDS011;18267;52.234;7.444;2024-03-07T02:28:05;44.03;;;16.67;;
31660;SDS011;18267;52.234;7.444;2024-03-07T02:30:31;33.90;;;15.05;;
31660;SDS011;18267;52.234;7.444;2024-03-07T02:32:57;37.10;;;15.88;;
31660;SDS011;18267;52.234;7.444;2024-03-07T02:35:31;37.90;;;16.95;;
31660;SDS011;18267;52.234;7.444;2024-03-07T02:38:00;38.50;;;17.42;;
31660;SDS011;18267;52.234;7.444;2024-03-07T02:40:27;35.33;;;15.63;;
31660;SDS011;18267;52.234;7.444;2024-03-07T02:42:52;36.42;;;16.45;;
31660;SDS011;18267;52.234;7.444;2024-03-07T02:45:18;35.47;;;16.67;;
31660;SDS011;18267;52.234;7.444;2024-03-07T02:47:43;41.38;;;17.50;;
31660;SDS011;18267;52.234;7.444;2024-03-07T02:50:09;36.65;;;16.27;;
31660;SDS011;18267;52.234;7.444;2024-03-07T02:52:35;37.10;;;15.18;;
31660;SDS011;18267;52.234;7.444;2024-03-07T02:55:01;38.05;;;16.65;;
31660;SDS011;18267;52.234;7.444;2024-03-07T02:57:28;34.38;;;16.13;;
31660;SDS011;18267;52.234;7.444;2024-03-07T02:59:54;40.97;;;16.70;;
31660;SDS011;18267;52.234;7.444;2024-03-07T03:02:20;37.30;;;16.40;;
31660;SDS011;18267;52.234;7.444;2024-03-07T03:04:45;38.53;;;16.35;;
31660;SDS011;18267;52.234;7.444;2024-03-07T03:07:11;36.53;;;16.10;;
31660;SDS011;18267;52.234;7.444;2024-03-07T03:09:36;38.85;;;16.52;;
31660;SDS011;18267;52.234;7.444;2024-03-07T03:12:08;37.42;;;16.02;;
31660;SDS011;18267;52.234;7.444;2024-03-07T03:14:36;39.35;;;15.48;;
31660;SDS011;18267;52.234;7.444;2024-03-07T03:17:02;31.60;;;15.00;;
31660;SDS011;18267;52.234;7.444;2024-03-07T03:19:28;38.45;;;16.88;;
31660;SDS011;18267;52.234;7.444;2024-03-07T03:21:53;45.80;;;16.30;;
31660;SDS011;18267;52.234;7.444;2024-03-07T03:24:20;38.13;;;15.82;;
31660;SDS011;18267;52.234;7.444;2024-03-07T03:26:49;34.15;;;15.27;;
31660;SDS011;18267;52.234;7.444;2024-03-07T03:29:14;42.25;;;16.08;;
31660;SDS011;18267;52.234;7.444;2024-03-07T03:31:41;36.42;;;15.80;;
31660;SDS011;18267;52.234;7.444;2024-03-07T03:34:06;37.60;;;14.38;;
31660;SDS011;18267;52.234;7.444;2024-03-07T03:36:34;34.95;;;15.43;;
31660;SDS011;18267;52.234;7.444;2024-03-07T03:39:00;40.08;;;16.08;;
31660;SDS011;18267;52.234;7.444;2024-03-07T03:41:26;40.83;;;16.63;;
31660;SDS011;18267;52.234;7.444;2024-03-07T03:43:52;40.72;;;16.38;;
31660;SDS011;18267;52.234;7.444;2024-03-07T03:46:18;34.40;;;14.60;;
31660;SDS011;18267;52.234;7.444;2024-03-07T03:48:43;39.58;;;16.00;;
31660;SDS011;18267;52.234;7.444;2024-03-07T03:51:09;36.47;;;15.20;;
31660;SDS011;18267;52.234;7.444;2024-03-07T03:53:37;36.85;;;16.52;;
31660;SDS011;18267;52.234;7.444;2024-03-07T03:56:03;33.78;;;15.55;;
31660;SDS011;18267;52.234;7.444;2024-03-07T03:58:30;33.95;;;14.55;;
31660;SDS011;18267;52.234;7.444;2024-03-07T04:00:55;31.23;;;13.52;;
31660;SDS011;18267;52.234;7.444;2024-03-07T04:03:23;39.28;;;15.48;;
31660;SDS011;18267;52.234;7.444;2024-03-07T04:05:49;33.00;;;13.90;;
31660;SDS011;18267;52.234;7.444;2024-03-07T04:08:14;30.17;;;14.20;;
31660;SDS011;18267;52.234;7.444;2024-03-07T04:10:40;33.72;;;14.45;;
31660;SDS011;18267;52.234;7.444;2024-03-07T04:13:06;30.60;;;14.15;;
31660;SDS011;18267;52.234;7.444;2024-03-07T04:15:32;31.08;;;13.98;;
31660;SDS011;18267;52.234;7.444;2024-03-07T04:17:58;26.58;;;12.45;;
31660;SDS011;18267;52.234;7.444;2024-03-07T04:20:24;35.67;;;14.50;;
31660;SDS011;18267;52.234;7.444;2024-03-07T04:22:50;31.13;;;14.88;;
31660;SDS011;18267;52.234;7.444;2024-03-07T04:25:16;31.27;;;13.70;;
31660;SDS011;18267;52.234;7.444;2024-03-07T04:27:41;28.95;;;14.50;;
31660;SDS011;18267;52.234;7.444;2024-03-07T04:30:07;38.03;;;13.43;;
31660;SDS011;18267;52.234;7.444;2024-03-07T04:32:36;27.42;;;13.02;;
31660;SDS011;18267;52.234;7.444;2024-03-07T04:35:02;26.02;;;12.75;;
31660;SDS011;18267;52.234;7.444;2024-03-07T04:37:32;28.23;;;13.07;;
31660;SDS011;18267;52.234;7.444;2024-03-07T04:40:05;28.95;;;13.38;;
31660;SDS011;18267;52.234;7.444;2024-03-07T04:42:40;28.83;;;13.20;;
31660;SDS011;18267;52.234;7.444;2024-03-07T04:45:10;27.83;;;12.63;;
31660;SDS011;18267;52.234;7.444;2024-03-07T04:47:40;29.05;;;12.45;;
31660;SDS011;18267;52.234;7.444;2024-03-07T04:50:12;32.63;;;13.60;;
31660;SDS011;18267;52.234;7.444;2024-03-07T04:52:42;34.53;;;13.98;;
31660;SDS011;18267;52.234;7.444;2024-03-07T04:55:08;30.50;;;12.90;;
31660;SDS011;18267;52.234;7.444;2024-03-07T04:57:35;28.38;;;12.75;;
31660;SDS011;18267;52.234;7.444;2024-03-07T05:00:06;24.83;;;12.20;;
31660;SDS011;18267;52.234;7.444;2024-03-07T05:02:32;32.38;;;12.48;;
31660;SDS011;18267;52.234;7.444;2024-03-07T05:04:58;27.20;;;12.45;;
31660;SDS011;18267;52.234;7.444;2024-03-07T05:07:24;32.80;;;12.93;;
31660;SDS011;18267;52.234;7.444;2024-03-07T05:09:49;23.63;;;12.50;;
31660;SDS011;18267;52.234;7.444;2024-03-07T05:12:15;28.23;;;11.88;;
31660;SDS011;18267;52.234;7.444;2024-03-07T05:14:40;29.70;;;12.95;;
31660;SDS011;18267;52.234;7.444;2024-03-07T05:17:06;23.10;;;11.27;;
31660;SDS011;18267;52.234;7.444;2024-03-07T05:19:33;25.98;;;11.20;;
31660;SDS011;18267;52.234;7.444;2024-03-07T05:21:59;24.05;;;10.93;;
31660;SDS011;18267;52.234;7.444;2024-03-07T05:24:26;29.90;;;12.27;;
31660;SDS011;18267;52.234;7.444;2024-03-07T05:26:52;29.23;;;12.30;;
31660;SDS011;18267;52.234;7.444;2024-03-07T05:29:18;26.50;;;12.00;;
31660;SDS011;18267;52.234;7.444;2024-03-07T05:31:44;28.02;;;12.38;;
31660;SDS011;18267;52.234;7.444;2024-03-07T05:34:13;27.92;;;12.60;;
31660;SDS011;18267;52.234;7.444;2024-03-07T05:36:40;28.42;;;12.77;;
31660;SDS011;18267;52.234;7.444;2024-03-07T05:39:13;27.90;;;11.77;;
31660;SDS011;18267;52.234;7.444;2024-03-07T05:41:40;29.85;;;13.27;;
31660;SDS011;18267;52.234;7.444;2024-03-07T05:44:07;28.10;;;11.98;;
31660;SDS011;18267;52.234;7.444;2024-03-07T05:46:43;30.70;;;12.35;;
31660;SDS011;18267;52.234;7.444;2024-03-07T05:49:13;27.73;;;10.43;;
31660;SDS011;18267;52.234;7.444;2024-03-07T05:51:39;26.80;;;11.13;;
31660;SDS011;18267;52.234;7.444;2024-03-07T05:54:10;26.83;;;12.55;;
31660;SDS011;18267;52.234;7.444;2024-03-07T05:56:37;25.45;;;11.25;;
31660;SDS011;18267;52.234;7.444;2024-03-07T05:59:04;30.15;;;11.27;;
31660;SDS011;18267;52.234;7.444;2024-03-07T06:01:31;24.58;;;11.30;;
31660;SDS011;18267;52.234;7.444;2024-03-07T06:04:00;24.95;;;10.75;;
31660;SDS011;18267;52.234;7.444;2024-03-07T06:06:26;29.88;;;10.75;;
31660;SDS011;18267;52.234;7.444;2024-03-07T06:08:52;22.40;;;10.82;;
31660;SDS011;18267;52.234;7.444;2024-03-07T06:11:18;21.75;;;10.57;;
31660;SDS011;18267;52.234;7.444;2024-03-07T06:13:46;21.35;;;10.45;;
31660;SDS011;18267;52.234;7.444;2024-03-07T06:16:12;24.02;;;10.57;;
31660;SDS011;18267;52.234;7.444;2024-03-07T06:18:39;21.60;;;10.27;;
31660;SDS011;18267;52.234;7.444;2024-03-07T06:21:08;26.77;;;12.02;;
31660;SDS011;18267;52.234;7.444;2024-03-07T06:23:34;23.40;;;11.63;;
31660;SDS011;18267;52.234;7.444;2024-03-07T06:25:59;29.00;;;12.13;;
31660;SDS011;18267;52.234;7.444;2024-03-07T06:28:25;31.30;;;11.55;;
31660;SDS011;18267;52.234;7.444;2024-03-07T06:30:54;28.00;;;11.88;;
31660;SDS011;18267;52.234;7.444;2024-03-07T06:33:20;24.33;;;10.52;;
31660;SDS011;18267;52.234;7.444;2024-03-07T06:35:47;21.50;;;9.60;;
31660;SDS011;18267;52.234;7.444;2024-03-07T06:38:13;25.90;;;11.68;;
31660;SDS011;18267;52.234;7.444;2024-03-07T06:40:39;27.88;;;11.75;;
31660;SDS011;18267;52.234;7.444;2024-03-07T06:43:06;27.45;;;10.90;;
31660;SDS011;18267;52.234;7.444;2024-03-07T06:45:35;32.00;;;11.60;;
31660;SDS011;18267;52.234;7.444;2024-03-07T06:48:02;21.13;;;10.82;;
31660;SDS011;18267;52.234;7.444;2024-03-07T06:50:37;18.35;;;9.52;;
31660;SDS011;18267;52.234;7.444;2024-03-07T06:53:03;20.98;;;9.65;;
31660;SDS011;18267;52.234;7.444;2024-03-07T06:55:34;27.98;;;10.32;;
31660;SDS011;18267;52.234;7.444;2024-03-07T06:57:59;23.42;;;10.40;;
31660;SDS011;18267;52.234;7.444;2024-03-07T07:00:25;18.35;;;9.57;;
31660;SDS011;18267;52.234;7.444;2024-03-07T07:02:51;21.42;;;9.50;;
31660;SDS011;18267;52.234;7.444;2024-03-07T07:05:19;18.52;;;9.05;;
31660;SDS011;18267;52.234;7.444;2024-03-07T07:07:46;20.67;;;10.35;;
31660;SDS011;18267;52.234;7.444;2024-03-07T07:10:13;20.75;;;10.38;;
31660;SDS011;18267;52.234;7.444;2024-03-07T07:12:48;24.00;;;11.48;;
31660;SDS011;18267;52.234;7.444;2024-03-07T07:15:15;21.83;;;10.50;;
31660;SDS011;18267;52.234;7.444;2024-03-07T07:17:42;26.27;;;9.70;;
31660;SDS011;18267;52.234;7.444;2024-03-07T07:20:11;21.17;;;10.05;;
31660;SDS011;18267;52.234;7.444;2024-03-07T07:22:40;21.85;;;10.70;;
31660;SDS011;18267;52.234;7.444;2024-03-07T07:25:06;22.10;;;10.60;;
31660;SDS011;18267;52.234;7.444;2024-03-07T07:27:40;23.88;;;10.20;;
31660;SDS011;18267;52.234;7.444;2024-03-07T07:30:07;24.67;;;11.25;;
31660;SDS011;18267;52.234;7.444;2024-03-07T07:32:33;22.98;;;9.57;;
31660;SDS011;18267;52.234;7.444;2024-03-07T07:34:58;20.25;;;10.43;;
31660;SDS011;18267;52.234;7.444;2024-03-07T07:37:24;22.45;;;9.77;;
31660;SDS011;18267;52.234;7.444;2024-03-07T07:39:49;21.33;;;9.48;;
31660;SDS011;18267;52.234;7.444;2024-03-07T07:42:15;24.55;;;9.90;;
31660;SDS011;18267;52.234;7.444;2024-03-07T07:44:41;24.95;;;10.13;;
31660;SDS011;18267;52.234;7.444;2024-03-07T07:47:08;24.27;;;11.55;;
31660;SDS011;18267;52.234;7.444;2024-03-07T07:49:35;28.85;;;10.02;;
31660;SDS011;18267;52.234;7.444;2024-03-07T07:52:04;22.52;;;10.10;;
31660;SDS011;18267;52.234;7.444;2024-03-07T07:54:30;24.95;;;11.10;;
31660;SDS011;18267;52.234;7.444;2024-03-07T07:56:56;21.20;;;9.95;;
31660;SDS011;18267;52.234;7.444;2024-03-07T07:59:22;22.40;;;10.52;;
31660;SDS011;18267;52.234;7.444;2024-03-07T08:01:47;26.80;;;10.55;;
31660;SDS011;18267;52.234;7.444;2024-03-07T08:04:13;24.67;;;11.75;;
31660;SDS011;18267;52.234;7.444;2024-03-07T08:06:40;23.65;;;11.13;;
31660;SDS011;18267;52.234;7.444;2024-03-07T08:09:06;28.75;;;11.88;;
31660;SDS011;18267;52.234;7.444;2024-03-07T08:11:34;27.35;;;12.20;;
31660;SDS011;18267;52.234;7.444;2024-03-07T08:14:01;26.85;;;11.57;;
31660;SDS011;18267;52.234;7.444;2024-03-07T08:16:27;27.85;;;13.32;;
31660;SDS011;18267;52.234;7.444;2024-03-07T08:18:53;35.75;;;13.40;;
31660;SDS011;18267;52.234;7.444;2024-03-07T08:21:18;32.22;;;13.50;;
31660;SDS011;18267;52.234;7.444;2024-03-07T08:23:44;33.28;;;14.02;;
31660;SDS011;18267;52.234;7.444;2024-03-07T08:26:11;27.60;;;13.35;;
31660;SDS011;18267;52.234;7.444;2024-03-07T08:28:37;29.85;;;14.27;;
31660;SDS011;18267;52.234;7.444;2024-03-07T08:31:02;36.35;;;14.18;;
31660;SDS011;18267;52.234;7.444;2024-03-07T08:33:29;31.27;;;14.52;;
31660;SDS011;18267;52.234;7.444;2024-03-07T08:35:58;40.40;;;15.30;;
31660;SDS011;18267;52.234;7.444;2024-03-07T08:38:24;35.35;;;13.70;;
31660;SDS011;18267;52.234;7.444;2024-03-07T08:40:49;39.63;;;16.48;;
31660;SDS011;18267;52.234;7.444;2024-03-07T08:43:15;34.55;;;15.63;;
31660;SDS011;18267;52.234;7.444;2024-03-07T08:45:41;32.60;;;13.82;;
31660;SDS011;18267;52.234;7.444;2024-03-07T08:48:06;32.53;;;13.50;;
31660;SDS011;18267;52.234;7.444;2024-03-07T08:50:33;32.67;;;15.25;;
31660;SDS011;18267;52.234;7.444;2024-03-07T08:52:59;36.08;;;14.40;;
31660;SDS011;18267;52.234;7.444;2024-03-07T08:55:26;34.47;;;13.35;;
31660;SDS011;18267;52.234;7.444;2024-03-07T08:57:51;30.20;;;13.73;;
31660;SDS011;18267;52.234;7.444;2024-03-07T09:00:18;33.33;;;15.05;;
31660;SDS011;18267;52.234;7.444;2024-03-07T09:05:18;36.22;;;14.35;;
31660;SDS011;18267;52.234;7.444;2024-03-07T09:07:45;33.15;;;14.48;;
31660;SDS011;18267;52.234;7.444;2024-03-07T09:10:12;36.90;;;14.15;;
31660;SDS011;18267;52.234;7.444;2024-03-07T09:12:39;36.50;;;13.80;;
31660;SDS011;18267;52.234;7.444;2024-03-07T09:15:05;33.63;;;13.50;;
31660;SDS011;18267;52.234;7.444;2024-03-07T09:17:31;32.53;;;14.00;;
31660;SDS011;18267;52.234;7.444;2024-03-07T09:19:57;28.00;;;13.32;;
31660;SDS011;18267;52.234;7.444;2024-03-07T09:22:22;34.13;;;13.45;;
31660;SDS011;18267;52.234;7.444;2024-03-07T09:24:48;32.25;;;14.18;;
31660;SDS011;18267;52.234;7.444;2024-03-07T09:27:13;32.55;;;13.55;;
31660;SDS011;18267;52.234;7.444;2024-03-07T09:29:40;27.83;;;13.68;;
31660;SDS011;18267;52.234;7.444;2024-03-07T09:32:06;37.38;;;15.55;;
31660;SDS011;18267;52.234;7.444;2024-03-07T09:34:34;36.85;;;14.77;;
31660;SDS011;18267;52.234;7.444;2024-03-07T09:37:03;31.63;;;13.18;;
31660;SDS011;18267;52.234;7.444;2024-03-07T09:39:28;32.35;;;14.55;;
31660;SDS011;18267;52.234;7.444;2024-03-07T09:41:56;37.53;;;14.57;;
31660;SDS011;18267;52.234;7.444;2024-03-07T09:44:22;37.03;;;13.68;;
31660;SDS011;18267;52.234;7.444;2024-03-07T09:46:51;31.52;;;13.98;;
31660;SDS011;18267;52.234;7.444;2024-03-07T09:49:19;36.33;;;13.13;;
31660;SDS011;18267;52.234;7.444;2024-03-07T09:51:46;27.30;;;12.25;;
31660;SDS011;18267;52.234;7.444;2024-03-07T09:54:12;34.10;;;13.70;;
31660;SDS011;18267;52.234;7.444;2024-03-07T09:56:40;36.25;;;14.60;;
31660;SDS011;18267;52.234;7.444;2024-03-07T09:59:08;34.05;;;13.57;;
31660;SDS011;18267;52.234;7.444;2024-03-07T10:01:37;29.65;;;13.23;;
31660;SDS011;18267;52.234;7.444;2024-03-07T10:04:04;36.55;;;14.15;;
31660;SDS011;18267;52.234;7.444;2024-03-07T10:06:45;27.70;;;11.27;;
31660;SDS011;18267;52.234;7.444;2024-03-07T10:09:11;32.97;;;12.55;;
31660;SDS011;18267;52.234;7.444;2024-03-07T10:11:40;30.98;;;13.15;;
31660;SDS011;18267;52.234;7.444;2024-03-07T10:14:09;32.78;;;13.52;;
31660;SDS011;18267;52.234;7.444;2024-03-07T10:16:35;27.10;;;12.35;;
31660;SDS011;18267;52.234;7.444;2024-03-07T10:19:04;29.27;;;12.70;;
31660;SDS011;18267;52.234;7.444;2024-03-07T10:21:30;31.35;;;13.63;;
31660;SDS011;18267;52.234;7.444;2024-03-07T10:24:06;28.45;;;12.23;;
31660;SDS011;18267;52.234;7.444;2024-03-07T10:26:36;25.70;;;12.35;;
31660;SDS011;18267;52.234;7.444;2024-03-07T10:29:03;26.58;;;11.95;;
31660;SDS011;18267;52.234;7.444;2024-03-07T10:31:31;26.67;;;12.10;;
31660;SDS011;18267;52.234;7.444;2024-03-07T10:34:01;29.13;;;12.60;;
31660;SDS011;18267;52.234;7.444;2024-03-07T10:36:27;35.22;;;13.85;;
31660;SDS011;18267;52.234;7.444;2024-03-07T10:38:59;32.63;;;12.80;;
31660;SDS011;18267;52.234;7.444;2024-03-07T10:41:28;28.70;;;12.73;;
31660;SDS011;18267;52.234;7.444;2024-03-07T10:43:56;25.95;;;13.10;;
31660;SDS011;18267;52.234;7.444;2024-03-07T10:46:24;40.85;;;15.43;;
31660;SDS011;18267;52.234;7.444;2024-03-07T10:48:51;31.55;;;13.98;;
31660;SDS011;18267;52.234;7.444;2024-03-07T10:51:29;38.72;;;14.70;;
31660;SDS011;18267;52.234;7.444;2024-03-07T10:59:41;34.13;;;12.88;;
31660;SDS011;18267;52.234;7.444;2024-03-07T11:02:24;36.13;;;14.90;;
31660;SDS011;18267;52.234;7.444;2024-03-07T11:04:58;38.03;;;14.40;;
31660;SDS011;18267;52.234;7.444;2024-03-07T11:07:25;38.17;;;14.20;;
31660;SDS011;18267;52.234;7.444;2024-03-07T11:09:53;32.80;;;14.45;;
31660;SDS011;18267;52.234;7.444;2024-03-07T11:12:23;33.83;;;12.57;;
31660;SDS011;18267;52.234;7.444;2024-03-07T11:14:50;33.90;;;12.80;;
31660;SDS011;18267;52.234;7.444;2024-03-07T11:17:17;29.17;;;13.10;;
31660;SDS011;18267;52.234;7.444;2024-03-07T11:19:45;32.35;;;13.15;;
31660;SDS011;18267;52.234;7.444;2024-03-07T11:22:13;35.83;;;13.93;;
31660;SDS011;18267;52.234;7.444;2024-03-07T11:25:02;33.00;;;11.98;;
31660;SDS011;18267;52.234;7.444;2024-03-07T11:27:33;38.10;;;14.63;;
31660;SDS011;18267;52.234;7.444;2024-03-07T11:30:04;36.03;;;13.00;;
31660;SDS011;18267;52.234;7.444;2024-03-07T11:32:34;34.10;;;13.77;;
31660;SDS011;18267;52.234;7.444;2024-03-07T11:35:04;34.78;;;14.48;;
31660;SDS011;18267;52.234;7.444;2024-03-07T11:37:39;32.13;;;13.82;;
31660;SDS011;18267;52.234;7.444;2024-03-07T11:40:09;32.85;;;13.52;;
31660;SDS011;18267;52.234;7.444;2024-03-07T11:42:43;35.15;;;13.50;;
31660;SDS011;18267;52.234;7.444;2024-03-07T11:45:12;35.83;;;14.40;;
31660;SDS011;18267;52.234;7.444;2024-03-07T11:47:49;27.60;;;12.85;;
31660;SDS011;18267;52.234;7.444;2024-03-07T11:50:28;32.40;;;13.15;;
31660;SDS011;18267;52.234;7.444;2024-03-07T11:52:59;30.83;;;12.85;;
31660;SDS011;18267;52.234;7.444;2024-03-07T11:55:25;35.00;;;14.02;;
31660;SDS011;18267;52.234;7.444;2024-03-07T11:57:53;37.92;;;13.35;;
31660;SDS011;18267;52.234;7.444;2024-03-07T12:00:19;32.25;;;13.88;;
31660;SDS011;18267;52.234;7.444;2024-03-07T12:02:48;33.55;;;13.07;;
31660;SDS011;18267;52.234;7.444;2024-03-07T12:05:14;31.13;;;12.25;;
31660;SDS011;18267;52.234;7.444;2024-03-07T12:07:41;25.20;;;13.00;;
31660;SDS011;18267;52.234;7.444;2024-03-07T12:10:08;24.25;;;11.85;;
31660;SDS011;18267;52.234;7.444;2024-03-07T12:12:33;33.38;;;13.27;;
31660;SDS011;18267;52.234;7.444;2024-03-07T12:14:59;30.85;;;13.00;;
31660;SDS011;18267;52.234;7.444;2024-03-07T12:17:27;32.30;;;12.77;;
31660;SDS011;18267;52.234;7.444;2024-03-07T12:19:55;30.10;;;12.73;;
31660;SDS011;18267;52.234;7.444;2024-03-07T12:22:26;35.45;;;14.07;;
31660;SDS011;18267;52.234;7.444;2024-03-07T12:25:01;32.00;;;13.02;;
31660;SDS011;18267;52.234;7.444;2024-03-07T12:27:28;31.40;;;12.55;;
31660;SDS011;18267;52.234;7.444;2024-03-07T12:29:54;36.10;;;12.93;;
31660;SDS011;18267;52.234;7.444;2024-03-07T12:32:20;31.15;;;12.13;;
31660;SDS011;18267;52.234;7.444;2024-03-07T12:34:46;33.70;;;13.30;;
31660;SDS011;18267;52.234;7.444;2024-03-07T12:37:14;31.45;;;13.98;;
31660;SDS011;18267;52.234;7.444;2024-03-07T12:39:41;24.83;;;12.02;;
31660;SDS011;18267;52.234;7.444;2024-03-07T12:42:17;32.45;;;13.20;;
31660;SDS011;18267;52.234;7.444;2024-03-07T12:44:45;28.35;;;11.10;;
31660;SDS011;18267;52.234;7.444;2024-03-07T12:47:14;35.65;;;12.88;;
31660;SDS011;18267;52.234;7.444;2024-03-07T12:49:41;27.92;;;12.38;;
31660;SDS011;18267;52.234;7.444;2024-03-07T12:52:07;32.20;;;12.30;;
31660;SDS011;18267;52.234;7.444;2024-03-07T12:54:33;30.73;;;12.77;;
31660;SDS011;18267;52.234;7.444;2024-03-07T12:57:08;31.73;;;13.25;;
31660;SDS011;18267;52.234;7.444;2024-03-07T12:59:35;25.60;;;11.77;;
31660;SDS011;18267;52.234;7.444;2024-03-07T13:02:03;30.90;;;12.55;;
31660;SDS011;18267;52.234;7.444;2024-03-07T13:04:31;30.63;;;12.02;;
31660;SDS011;18267;52.234;7.444;2024-03-07T13:06:57;27.85;;;11.85;;
31660;SDS011;18267;52.234;7.444;2024-03-07T13:09:25;31.85;;;13.15;;
31660;SDS011;18267;52.234;7.444;2024-03-07T13:11:53;35.90;;;13.45;;
31660;SDS011;18267;52.234;7.444;2024-03-07T13:14:19;31.80;;;13.02;;
31660;SDS011;18267;52.234;7.444;2024-03-07T13:16:44;31.17;;;13.05;;
31660;SDS011;18267;52.234;7.444;2024-03-07T13:19:10;28.33;;;11.43;;
31660;SDS011;18267;52.234;7.444;2024-03-07T13:21:37;31.42;;;13.25;;
31660;SDS011;18267;52.234;7.444;2024-03-07T13:24:04;30.77;;;13.00;;
31660;SDS011;18267;52.234;7.444;2024-03-07T13:26:30;36.05;;;12.48;;
31660;SDS011;18267;52.234;7.444;2024-03-07T13:28:56;31.02;;;12.45;;
31660;SDS011;18267;52.234;7.444;2024-03-07T13:31:26;33.80;;;13.10;;
31660;SDS011;18267;52.234;7.444;2024-03-07T13:33:54;28.48;;;12.75;;
31660;SDS011;18267;52.234;7.444;2024-03-07T13:36:20;35.33;;;12.23;;
31660;SDS011;18267;52.234;7.444;2024-03-07T13:38:49;29.08;;;11.77;;
31660;SDS011;18267;52.234;7.444;2024-03-07T13:41:20;28.33;;;11.95;;
31660;SDS011;18267;52.234;7.444;2024-03-07T13:43:46;29.45;;;12.63;;
31660;SDS011;18267;52.234;7.444;2024-03-07T13:46:13;33.40;;;13.73;;
31660;SDS011;18267;52.234;7.444;2024-03-07T13:48:40;27.83;;;12.80;;
31660;SDS011;18267;52.234;7.444;2024-03-07T13:51:07;33.95;;;14.13;;
31660;SDS011;18267;52.234;7.444;2024-03-07T13:53:33;31.95;;;12.43;;
31660;SDS011;18267;52.234;7.444;2024-03-07T14:07:05;34.00;;;13.75;;
31660;SDS011;18267;52.234;7.444;2024-03-07T14:13:02;33.50;;;13.13;;
31660;SDS011;18267;52.234;7.444;2024-03-07T14:32:38;36.78;;;12.40;;
31660;SDS011;18267;52.234;7.444;2024-03-07T14:35:17;43.88;;;13.00;;
31660;SDS011;18267;52.234;7.444;2024-03-07T14:40:40;43.72;;;14.85;;
31660;SDS011;18267;52.234;7.444;2024-03-07T14:43:05;35.42;;;14.45;;
31660;SDS011;18267;52.234;7.444;2024-03-07T14:45:39;41.55;;;14.43;;
31660;SDS011;18267;52.234;7.444;2024-03-07T14:48:05;44.30;;;14.43;;
31660;SDS011;18267;52.234;7.444;2024-03-07T14:50:35;39.50;;;14.98;;
31660;SDS011;18267;52.234;7.444;2024-03-07T14:53:03;36.97;;;13.68;;
31660;SDS011;18267;52.234;7.444;2024-03-07T14:55:29;37.92;;;14.73;;
31660;SDS011;18267;52.234;7.444;2024-03-07T14:57:57;40.83;;;13.82;;
31660;SDS011;18267;52.234;7.444;2024-03-07T15:00:23;40.80;;;13.82;;
31660;SDS011;18267;52.234;7.444;2024-03-07T15:02:53;41.50;;;14.60;;
31660;SDS011;18267;52.234;7.444;2024-03-07T15:05:23;41.78;;;15.45;;